Time;durP1;ratioP1;P1;durP2;ratioP2;P2;SDS_P1;SDS_P2;PMS_P1;PMS_P2;Temp;Humidity;BMP_temperature;BMP_pressure;BME280_temperature;BME280_humidity;BME280_pressure;Samples;Min_cycle;Max_cycle;Signal;HPM_P1;HPM_P2
2022/07/26 00:00:12;;;;;;;3.60;1.10;;;18.40;99.90;;;;;;5075874;28;20682;-39
2022/07/26 00:02:39;;;;;;;2.07;0.80;;;18.30;99.90;;;;;;5075438;28;20199;-37
2022/07/26 00:05:06;;;;;;;5.00;0.70;;;18.30;99.90;;;;;;5075861;28;20655;-38
2022/07/26 00:07:31;;;;;;;7.27;1.07;;;18.20;99.90;;;;;;5075779;28;20190;-36
2022/07/26 00:09:57;;;;;;;4.93;0.87;;;18.20;99.90;;;;;;5076119;28;20580;-37
2022/07/26 00:12:23;;;;;;;2.53;0.80;;;18.10;99.90;;;;;;5076016;28;20187;-38
2022/07/26 00:14:48;;;;;;;2.87;1.00;;;18.00;99.90;;;;;;5076023;28;20206;-40
2022/07/26 00:17:14;;;;;;;3.97;0.70;;;18.00;99.90;;;;;;5075668;28;20266;-41
2022/07/26 00:19:39;;;;;;;1.63;0.83;;;17.90;99.90;;;;;;5075683;28;20206;-39
2022/07/26 00:24:49;;;;;;;2.20;0.70;;;17.80;99.90;;;;;;5075815;28;20237;-36
2022/07/26 00:27:15;;;;;;;6.70;1.00;;;17.80;99.90;;;;;;5075637;28;20620;-40
2022/07/26 00:29:41;;;;;;;2.37;1.30;;;17.70;99.90;;;;;;5075356;28;20291;-40
2022/07/26 00:32:06;;;;;;;4.33;1.30;;;17.70;99.90;;;;;;5075639;28;20524;-38
2022/07/26 00:34:32;;;;;;;2.40;0.77;;;17.60;99.90;;;;;;5075402;28;20179;-40
2022/07/26 00:36:57;;;;;;;3.43;0.90;;;17.60;99.90;;;;;;5058032;28;20186;-39
2022/07/26 00:39:23;;;;;;;2.40;1.00;;;17.50;99.90;;;;;;5075345;28;20180;-38
2022/07/26 00:41:49;;;;;;;3.60;1.00;;;17.50;99.90;;;;;;5075541;28;20237;-39
2022/07/26 00:44:15;;;;;;;3.67;0.80;;;17.50;99.90;;;;;;5075536;28;20198;-38
2022/07/26 00:46:44;;;;;;;3.67;0.97;;;17.40;99.90;;;;;;5057308;28;20207;-36
2022/07/26 00:49:10;;;;;;;8.33;1.43;;;17.40;99.90;;;;;;5075379;28;20214;-38
2022/07/26 00:51:36;;;;;;;7.63;1.60;;;17.30;99.90;;;;;;5075962;28;20694;-42
2022/07/26 00:54:03;;;;;;;5.93;1.40;;;17.30;99.90;;;;;;5075316;28;20179;-43
2022/07/26 00:56:30;;;;;;;3.40;1.07;;;17.30;99.90;;;;;;5076481;28;20190;-43
2022/07/26 00:58:56;;;;;;;3.27;1.00;;;17.30;99.90;;;;;;5075933;28;20195;-44
2022/07/26 01:01:22;;;;;;;5.50;1.10;;;17.30;99.90;;;;;;5075608;28;20199;-44
2022/07/26 01:03:51;;;;;;;3.80;1.10;;;17.20;99.90;;;;;;5076314;28;20183;-43
2022/07/26 01:06:17;;;;;;;3.67;1.00;;;17.30;99.90;;;;;;5075735;28;20188;-45
2022/07/26 01:08:43;;;;;;;4.03;1.27;;;17.30;99.90;;;;;;5075909;28;20265;-43
2022/07/26 01:11:08;;;;;;;5.53;1.07;;;17.30;99.90;;;;;;5075545;28;20203;-44
2022/07/26 01:13:34;;;;;;;6.30;0.93;;;17.30;99.90;;;;;;5074927;28;20624;-43
2022/07/26 01:15:59;;;;;;;8.67;1.37;;;17.30;99.90;;;;;;5075018;28;20179;-41
2022/07/26 01:18:25;;;;;;;1.93;0.90;;;17.30;99.90;;;;;;5075244;28;20172;-43
2022/07/26 01:20:52;;;;;;;1.37;0.80;;;17.20;99.90;;;;;;5075297;28;20207;-41
2022/07/26 01:23:18;;;;;;;4.80;1.40;;;17.20;99.90;;;;;;5075059;28;20176;-40
2022/07/26 01:25:45;;;;;;;3.10;1.10;;;17.20;99.90;;;;;;5075504;28;20175;-41
2022/07/26 01:28:10;;;;;;;2.73;1.03;;;17.20;99.90;;;;;;5076308;28;20544;-41
2022/07/26 01:30:36;;;;;;;6.33;1.13;;;17.20;99.90;;;;;;5075061;28;20218;-38
2022/07/26 01:33:02;;;;;;;2.50;1.20;;;17.20;99.90;;;;;;5074844;28;20666;-41
2022/07/26 01:35:27;;;;;;;1.80;1.00;;;17.10;99.90;;;;;;5074960;28;20175;-39
2022/07/26 01:37:53;;;;;;;2.10;1.00;;;17.10;99.90;;;;;;5074636;28;20179;-39
2022/07/26 01:40:18;;;;;;;3.10;0.87;;;17.10;99.90;;;;;;5056115;28;20261;-38
2022/07/26 01:42:44;;;;;;;6.60;1.13;;;17.10;99.90;;;;;;5074336;28;20190;-40
2022/07/26 01:45:11;;;;;;;3.73;1.10;;;17.00;99.90;;;;;;5074076;28;20207;-37
2022/07/26 01:47:37;;;;;;;5.40;1.53;;;17.00;99.90;;;;;;5073981;28;20259;-38
2022/07/26 01:50:05;;;;;;;3.93;1.40;;;17.00;99.90;;;;;;5073795;28;20242;-40
2022/07/26 01:52:31;;;;;;;3.80;1.43;;;17.00;99.90;;;;;;5073884;28;20186;-43
2022/07/26 01:54:57;;;;;;;3.90;1.20;;;17.00;99.90;;;;;;5074086;28;20184;-41
2022/07/26 01:57:23;;;;;;;6.37;1.60;;;17.00;99.90;;;;;;5074072;28;20171;-40
2022/07/26 01:59:49;;;;;;;5.33;1.23;;;17.00;99.90;;;;;;5073905;28;20328;-41
2022/07/26 02:02:15;;;;;;;3.73;1.13;;;17.00;99.90;;;;;;5055720;28;20209;-41
2022/07/26 02:04:58;;;;;;;3.00;1.20;;;17.10;99.90;;;;;;5074255;28;20262;-42
2022/07/26 02:07:26;;;;;;;3.67;1.20;;;17.00;99.90;;;;;;5074423;28;20178;-41
2022/07/26 02:09:52;;;;;;;7.47;1.70;;;17.00;99.90;;;;;;5073741;28;20262;-41
2022/07/26 02:12:17;;;;;;;4.23;1.40;;;17.00;99.90;;;;;;5073902;28;20175;-41
2022/07/26 02:14:43;;;;;;;3.67;1.43;;;17.00;99.90;;;;;;5086510;22;20310;-42
2022/07/26 02:17:08;;;;;;;7.07;1.73;;;17.00;99.90;;;;;;5074680;28;20259;-43
2022/07/26 02:19:34;;;;;;;6.57;1.33;;;17.00;99.90;;;;;;5074333;28;20237;-42
2022/07/26 02:22:00;;;;;;;6.10;1.13;;;17.00;99.90;;;;;;5074537;28;20245;-43
2022/07/26 02:24:30;;;;;;;5.57;1.20;;;17.00;99.90;;;;;;5073842;28;20643;-43
2022/07/26 02:26:58;;;;;;;4.83;1.13;;;17.00;99.90;;;;;;5075167;28;20205;-42
2022/07/26 02:29:24;;;;;;;5.30;1.57;;;17.00;99.90;;;;;;5074562;28;20243;-43
2022/07/26 02:31:50;;;;;;;5.63;1.57;;;16.90;99.90;;;;;;5074553;28;20187;-43
2022/07/26 02:34:16;;;;;;;4.37;1.20;;;16.90;99.90;;;;;;5074734;28;20183;-43
2022/07/26 02:36:42;;;;;;;4.10;1.20;;;16.90;99.90;;;;;;5074461;28;20180;-42
2022/07/26 02:39:08;;;;;;;9.07;1.57;;;17.00;99.90;;;;;;5074850;28;20187;-44
2022/07/26 02:41:33;;;;;;;3.90;1.40;;;17.00;99.90;;;;;;5074649;28;20239;-43
2022/07/26 02:43:59;;;;;;;4.03;1.30;;;17.00;99.90;;;;;;5075021;28;20190;-43
2022/07/26 02:46:24;;;;;;;10.27;1.70;;;17.00;99.90;;;;;;5074378;28;20202;-43
2022/07/26 02:48:50;;;;;;;8.20;1.23;;;17.00;99.90;;;;;;5075024;28;20207;-41
2022/07/26 02:51:16;;;;;;;3.87;1.30;;;17.00;99.90;;;;;;5074928;28;20238;-43
2022/07/26 02:53:41;;;;;;;4.10;1.20;;;16.90;99.90;;;;;;5075000;28;20180;-44
2022/07/26 02:56:07;;;;;;;6.10;1.40;;;16.90;99.90;;;;;;5074833;28;20228;-43
2022/07/26 02:58:33;;;;;;;5.93;1.70;;;16.90;99.90;;;;;;5074719;28;20179;-44
2022/07/26 03:00:58;;;;;;;5.53;1.53;;;16.90;99.90;;;;;;5074799;28;20287;-44
2022/07/26 03:03:24;;;;;;;6.27;1.40;;;16.90;99.90;;;;;;5073311;28;20183;-43
2022/07/26 03:05:49;;;;;;;7.20;1.63;;;16.90;99.90;;;;;;5074984;28;20224;-43
2022/07/26 03:08:15;;;;;;;4.90;1.73;;;16.90;99.90;;;;;;5074462;28;20180;-43
2022/07/26 03:10:41;;;;;;;8.07;1.83;;;16.90;99.90;;;;;;5074404;28;20215;-43
2022/07/26 03:13:06;;;;;;;6.77;1.73;;;17.00;99.90;;;;;;5075107;28;20229;-43
2022/07/26 03:15:32;;;;;;;5.10;1.93;;;17.00;99.90;;;;;;5074440;28;20219;-44
2022/07/26 03:17:57;;;;;;;7.03;1.60;;;16.90;99.90;;;;;;5077386;28;20184;-44
2022/07/26 03:20:23;;;;;;;13.50;1.80;;;16.90;99.90;;;;;;5074576;28;20749;-43
2022/07/26 03:22:49;;;;;;;4.87;1.50;;;17.00;99.90;;;;;;5074922;28;20187;-43
2022/07/26 03:25:14;;;;;;;8.20;1.90;;;16.90;99.90;;;;;;5074382;28;20175;-44
2022/07/26 03:27:58;;;;;;;7.33;1.80;;;17.00;99.90;;;;;;5041184;28;20645;-45
2022/07/26 03:30:24;;;;;;;8.83;1.60;;;17.00;99.90;;;;;;5074403;28;20674;-42
2022/07/26 03:32:50;;;;;;;6.00;1.40;;;17.00;99.90;;;;;;5075137;28;20685;-43
2022/07/26 03:35:15;;;;;;;5.17;1.73;;;16.90;99.90;;;;;;5075470;28;20176;-43
2022/07/26 03:37:41;;;;;;;7.53;1.70;;;17.00;99.90;;;;;;5078241;28;20254;-45
2022/07/26 03:40:07;;;;;;;4.53;1.70;;;17.00;99.90;;;;;;5078631;28;20249;-44
2022/07/26 03:42:37;;;;;;;6.93;1.43;;;16.90;99.90;;;;;;5076827;28;20262;-43
2022/07/26 03:45:03;;;;;;;9.43;1.70;;;16.90;99.90;;;;;;5078217;28;20257;-43
2022/07/26 03:47:29;;;;;;;6.17;1.87;;;16.90;99.90;;;;;;5080032;28;20187;-43
2022/07/26 03:49:54;;;;;;;7.30;1.77;;;17.00;99.90;;;;;;5080519;28;20211;-44
2022/07/26 03:52:20;;;;;;;8.73;2.20;;;16.90;99.90;;;;;;5080227;28;20164;-43
2022/07/26 03:54:46;;;;;;;6.63;1.73;;;16.90;99.90;;;;;;5079988;28;20634;-44
2022/07/26 03:57:11;;;;;;;9.77;1.80;;;17.00;99.90;;;;;;5080781;28;20172;-43
2022/07/26 03:59:37;;;;;;;5.07;1.93;;;16.90;99.90;;;;;;5082868;28;20563;-42
2022/07/26 04:02:02;;;;;;;7.40;1.97;;;17.00;99.90;;;;;;5079810;28;20183;-43
2022/07/26 04:04:28;;;;;;;8.03;1.90;;;17.00;99.90;;;;;;5078034;28;20590;-42
2022/07/26 04:06:55;;;;;;;9.50;1.97;;;17.10;99.90;;;;;;5078070;28;20175;-45
2022/07/26 04:09:21;;;;;;;5.03;2.20;;;17.10;99.90;;;;;;5077514;28;20571;-42
2022/07/26 04:11:47;;;;;;;8.97;2.20;;;17.10;99.90;;;;;;5077223;28;20171;-42
2022/07/26 04:14:13;;;;;;;9.03;2.03;;;17.00;99.90;;;;;;5077006;28;20252;-43
2022/07/26 04:16:39;;;;;;;5.73;1.97;;;17.00;99.90;;;;;;5077663;28;20179;-44
2022/07/26 04:19:05;;;;;;;9.10;2.00;;;17.10;99.90;;;;;;5077601;28;20681;-40
2022/07/26 04:21:30;;;;;;;10.47;2.97;;;17.10;99.90;;;;;;5077030;28;20241;-43
2022/07/26 04:23:56;;;;;;;9.83;1.90;;;17.20;99.90;;;;;;5075922;28;20228;-43
2022/07/26 04:26:22;;;;;;;8.13;1.80;;;17.10;99.90;;;;;;5077199;28;20551;-43
2022/07/26 04:28:48;;;;;;;6.67;1.90;;;17.10;99.90;;;;;;5076496;28;20184;-43
2022/07/26 04:31:13;;;;;;;6.27;1.80;;;17.10;99.90;;;;;;5077569;28;20639;-43
2022/07/26 04:33:39;;;;;;;7.37;2.00;;;17.20;99.90;;;;;;5077653;28;20225;-41
2022/07/26 04:36:05;;;;;;;7.43;2.20;;;17.20;99.90;;;;;;5076093;28;20167;-41
2022/07/26 04:38:31;;;;;;;6.67;1.97;;;17.20;99.90;;;;;;5075640;28;20689;-43
2022/07/26 04:40:56;;;;;;;7.47;2.03;;;17.20;99.90;;;;;;5075641;28;20707;-42
2022/07/26 04:43:23;;;;;;;9.13;2.20;;;17.20;99.90;;;;;;5078198;28;20194;-42
2022/07/26 04:45:49;;;;;;;12.97;2.10;;;17.20;99.90;;;;;;5075422;28;20246;-42
2022/07/26 04:48:15;;;;;;;5.27;2.07;;;17.30;99.90;;;;;;5075616;28;20184;-42
2022/07/26 04:50:42;;;;;;;8.83;2.17;;;17.30;99.90;;;;;;5075573;28;20219;-40
2022/07/26 04:53:09;;;;;;;7.27;2.17;;;17.30;99.90;;;;;;5076581;28;20179;-41
2022/07/26 04:55:36;;;;;;;7.40;1.80;;;17.30;99.90;;;;;;5075749;28;20175;-41
2022/07/26 04:58:02;;;;;;;9.77;2.37;;;17.40;99.90;;;;;;5075862;28;20186;-43
2022/07/26 05:00:28;;;;;;;9.40;1.83;;;17.40;99.90;;;;;;5075089;28;20675;-42
2022/07/26 05:02:56;;;;;;;10.93;2.37;;;17.40;99.90;;;;;;5075316;28;20186;-43
2022/07/26 05:05:23;;;;;;;12.83;2.47;;;17.40;99.90;;;;;;5079492;28;20171;-42
2022/07/26 05:07:51;;;;;;;10.87;2.60;;;17.40;99.90;;;;;;5075127;28;20188;-43
2022/07/26 05:10:18;;;;;;;12.30;2.53;;;17.40;99.90;;;;;;5074939;28;20238;-43
2022/07/26 05:12:47;;;;;;;9.77;2.53;;;17.40;99.90;;;;;;5075151;28;20260;-42
2022/07/26 05:15:13;;;;;;;7.33;2.27;;;17.40;99.90;;;;;;5074658;28;20196;-43
2022/07/26 05:17:40;;;;;;;11.07;2.37;;;17.40;99.90;;;;;;5074713;28;20175;-44
2022/07/26 05:20:08;;;;;;;12.90;2.57;;;17.40;99.90;;;;;;5078809;28;20200;-44
2022/07/26 05:22:35;;;;;;;9.23;2.50;;;17.40;99.90;;;;;;5075939;28;20197;-43
2022/07/26 05:25:02;;;;;;;10.00;2.30;;;17.40;99.90;;;;;;5077076;28;20257;-42
2022/07/26 05:27:27;;;;;;;6.60;2.50;;;17.40;99.90;;;;;;5078791;28;20184;-43
2022/07/26 05:29:54;;;;;;;5.30;1.80;;;17.40;99.90;;;;;;5075352;28;20207;-43
2022/07/26 05:32:21;;;;;;;14.10;3.07;;;17.40;99.90;;;;;;5075186;28;20587;-42
2022/07/26 05:34:46;;;;;;;7.77;2.20;;;17.50;99.90;;;;;;5074462;28;20172;-42
2022/07/26 05:37:12;;;;;;;6.03;2.23;;;17.50;99.90;;;;;;5075095;28;20260;-42
2022/07/26 05:39:37;;;;;;;9.63;2.37;;;17.60;99.90;;;;;;5074694;28;20223;-41
2022/07/26 05:42:03;;;;;;;6.90;2.10;;;17.60;99.90;;;;;;5074770;28;20175;-42
2022/07/26 05:44:29;;;;;;;6.80;2.10;;;17.50;99.90;;;;;;5073051;28;20180;-43
2022/07/26 05:46:54;;;;;;;5.30;2.20;;;17.60;99.90;;;;;;5074265;28;20176;-43
2022/07/26 05:49:20;;;;;;;8.63;2.27;;;17.60;99.90;;;;;;5074127;28;20671;-42
2022/07/26 05:51:45;;;;;;;12.57;2.40;;;17.60;99.90;;;;;;5074255;28;20172;-43
2022/07/26 05:54:11;;;;;;;5.10;2.13;;;17.60;99.90;;;;;;5074694;28;20167;-42
2022/07/26 05:56:37;;;;;;;9.87;1.90;;;17.70;99.90;;;;;;5074232;28;20206;-42
2022/07/26 05:59:03;;;;;;;10.50;2.60;;;17.70;99.90;;;;;;5073370;28;20270;-43
2022/07/26 06:01:31;;;;;;;9.60;2.80;;;17.70;99.90;;;;;;5074112;28;20290;-44
2022/07/26 06:03:57;;;;;;;10.40;2.63;;;17.80;99.90;;;;;;5074127;28;20194;-45
2022/07/26 06:06:23;;;;;;;10.97;2.97;;;17.70;99.90;;;;;;5074558;28;20183;-40
2022/07/26 06:08:49;;;;;;;13.13;2.90;;;17.80;99.90;;;;;;5077136;28;20187;-42
2022/07/26 06:11:14;;;;;;;9.93;2.47;;;17.80;99.90;;;;;;5073835;28;20265;-41
2022/07/26 06:13:40;;;;;;;9.20;2.87;;;17.80;99.90;;;;;;5073710;28;20182;-43
2022/07/26 06:16:05;;;;;;;8.53;2.70;;;17.80;99.90;;;;;;5074086;28;20175;-39
2022/07/26 06:18:31;;;;;;;7.83;2.93;;;17.80;99.90;;;;;;5077462;28;20187;-45
2022/07/26 06:20:57;;;;;;;8.60;3.10;;;17.90;99.90;;;;;;5073907;28;20210;-41
2022/07/26 06:23:23;;;;;;;8.60;2.80;;;17.80;99.90;;;;;;5072665;28;20606;-41
2022/07/26 06:25:48;;;;;;;11.07;3.03;;;17.90;99.90;;;;;;5076651;28;20546;-43
2022/07/26 06:28:14;;;;;;;10.10;3.10;;;17.90;99.90;;;;;;5073778;28;20179;-45
2022/07/26 06:30:42;;;;;;;14.10;3.33;;;17.90;99.90;;;;;;5074007;28;20211;-42
2022/07/26 06:33:08;;;;;;;7.33;3.00;;;18.00;99.90;;;;;;5073798;28;20175;-41
2022/07/26 06:35:34;;;;;;;7.60;3.63;;;18.00;99.90;;;;;;5073612;28;20229;-41
2022/07/26 06:38:01;;;;;;;7.10;3.20;;;18.00;99.90;;;;;;5072556;28;20254;-43
2022/07/26 06:40:29;;;;;;;8.50;3.53;;;18.00;99.90;;;;;;5073682;28;20234;-44
2022/07/26 06:42:55;;;;;;;11.97;3.77;;;18.00;99.90;;;;;;5077695;28;20643;-46
2022/07/26 06:45:21;;;;;;;14.37;3.40;;;18.10;99.90;;;;;;5073867;28;20207;-44
2022/07/26 06:47:46;;;;;;;13.03;3.50;;;18.10;99.90;;;;;;5073945;28;20249;-43
2022/07/26 06:50:12;;;;;;;13.27;3.67;;;18.20;99.90;;;;;;5073637;28;20713;-42
2022/07/26 06:52:38;;;;;;;13.50;3.97;;;18.20;99.90;;;;;;5073454;28;20190;-41
2022/07/26 06:55:05;;;;;;;16.63;4.37;;;18.20;99.90;;;;;;5075790;28;20179;-44
2022/07/26 06:57:30;;;;;;;9.97;4.00;;;18.30;99.90;;;;;;5074805;28;20195;-43
2022/07/26 06:59:56;;;;;;;15.20;3.93;;;18.30;99.90;;;;;;5073290;28;20284;-43
2022/07/26 07:02:22;;;;;;;11.20;4.03;;;18.30;99.90;;;;;;5073540;28;20175;-43
2022/07/26 07:04:47;;;;;;;10.17;4.20;;;18.40;99.90;;;;;;5078570;28;20180;-43
2022/07/26 07:07:13;;;;;;;10.63;4.00;;;18.40;99.90;;;;;;5073298;28;20581;-44
2022/07/26 07:09:39;;;;;;;15.23;4.90;;;18.50;99.90;;;;;;5073156;28;20211;-41
2022/07/26 07:12:06;;;;;;;11.40;4.20;;;18.60;99.90;;;;;;5080974;28;20172;-42
2022/07/26 07:14:32;;;;;;;13.53;5.07;;;18.70;99.90;;;;;;5077180;28;20198;-42
2022/07/26 07:16:58;;;;;;;14.80;5.20;;;18.70;99.90;;;;;;5077096;28;20303;-44
2022/07/26 07:19:25;;;;;;;13.23;4.50;;;18.70;99.90;;;;;;5077331;28;20206;-43
2022/07/26 07:21:51;;;;;;;9.57;4.50;;;18.70;99.90;;;;;;5077310;28;20207;-44
2022/07/26 07:24:17;;;;;;;9.97;4.60;;;18.80;99.90;;;;;;5081807;28;20222;-43
2022/07/26 07:26:43;;;;;;;10.10;4.40;;;18.80;99.90;;;;;;5082205;28;20175;-38
2022/07/26 07:29:13;;;;;;;10.37;4.37;;;18.90;99.90;;;;;;5078312;28;20214;-38
2022/07/26 07:31:40;;;;;;;14.37;5.40;;;19.00;99.90;;;;;;5076672;28;20210;-38
2022/07/26 07:34:06;;;;;;;11.10;5.03;;;19.10;99.90;;;;;;5077140;28;20240;-40
2022/07/26 07:36:31;;;;;;;17.73;5.77;;;19.10;99.90;;;;;;5077096;28;20253;-37
2022/07/26 07:38:57;;;;;;;14.33;5.60;;;19.10;99.90;;;;;;5076604;28;20245;-41
2022/07/26 07:41:23;;;;;;;10.30;5.30;;;19.20;99.90;;;;;;5076503;28;20195;-40
2022/07/26 07:43:48;;;;;;;12.43;5.30;;;19.20;99.90;;;;;;5077610;28;20183;-39
2022/07/26 07:46:14;;;;;;;8.30;4.90;;;19.30;99.90;;;;;;5077303;28;20565;-40
2022/07/26 07:48:40;;;;;;;14.37;5.60;;;19.30;99.90;;;;;;5077631;28;20187;-38
2022/07/26 07:51:09;;;;;;;16.03;6.03;;;19.40;99.90;;;;;;5076923;28;20249;-39
2022/07/26 07:53:35;;;;;;;11.33;5.20;;;19.50;99.90;;;;;;5078242;28;20737;-43
2022/07/26 07:56:01;;;;;;;13.73;5.00;;;19.70;99.90;;;;;;5078023;28;20203;-44
2022/07/26 07:58:27;;;;;;;10.93;5.50;;;19.80;99.90;;;;;;5078321;28;20179;-42
2022/07/26 08:00:52;;;;;;;12.43;5.60;;;19.90;99.90;;;;;;5078264;28;20191;-41
2022/07/26 08:03:18;;;;;;;9.90;5.47;;;20.00;99.90;;;;;;5078220;28;20175;-44
2022/07/26 08:05:45;;;;;;;10.77;5.30;;;20.40;99.90;;;;;;5078053;28;20175;-42
2022/07/26 08:08:11;;;;;;;13.40;5.40;;;20.70;99.90;;;;;;5078060;28;20640;-44
2022/07/26 08:10:36;;;;;;;12.70;5.13;;;20.80;99.90;;;;;;5077406;28;20318;-43
2022/07/26 08:13:02;;;;;;;12.77;5.17;;;20.90;99.90;;;;;;5077375;28;20206;-43
2022/07/26 08:15:27;;;;;;;10.33;5.10;;;20.90;99.90;;;;;;5077075;28;20221;-42
2022/07/26 08:17:53;;;;;;;9.80;5.20;;;20.90;99.90;;;;;;5090251;22;20657;-42
2022/07/26 08:20:19;;;;;;;13.47;5.27;;;20.90;99.90;;;;;;5076524;28;20245;-41
2022/07/26 08:22:44;;;;;;;14.30;5.37;;;21.00;99.90;;;;;;5075040;28;20175;-41
2022/07/26 08:25:10;;;;;;;7.33;4.37;;;21.00;99.90;;;;;;5076150;28;20191;-40
2022/07/26 08:27:36;;;;;;;12.67;5.37;;;21.00;99.90;;;;;;5075925;28;20180;-41
2022/07/26 08:30:02;;;;;;;12.60;5.00;;;21.00;99.90;;;;;;5075779;28;20307;-41
2022/07/26 08:32:28;;;;;;;8.47;5.53;;;21.10;99.90;;;;;;5076079;28;20643;-42
2022/07/26 08:34:53;;;;;;;8.90;5.00;;;21.10;99.90;;;;;;5076055;28;20258;-39
2022/07/26 08:37:19;;;;;;;12.30;4.57;;;21.30;99.90;;;;;;5075669;28;20666;-43
2022/07/26 08:39:46;;;;;;;12.00;4.40;;;21.30;99.90;;;;;;5075641;28;20199;-41
2022/07/26 08:42:21;;;;;;;9.87;4.53;;;21.40;99.90;;;;;;5075608;28;20184;-41
2022/07/26 08:44:47;;;;;;;12.57;4.13;;;21.50;99.90;;;;;;5075447;28;20190;-41
2022/07/26 08:47:16;;;;;;;9.63;4.33;;;21.50;99.90;;;;;;5075865;28;20175;-41
2022/07/26 08:49:42;;;;;;;13.80;4.10;;;21.50;99.90;;;;;;5075742;28;20214;-41
2022/07/26 08:52:10;;;;;;;10.37;4.33;;;21.50;99.90;;;;;;5075821;28;20180;-40
2022/07/26 08:54:41;;;;;;;7.93;3.70;;;21.60;99.90;;;;;;5075474;28;20164;-43
2022/07/26 08:57:06;;;;;;;12.77;4.27;;;21.80;99.90;;;;;;5075488;28;20160;-41
2022/07/26 08:59:32;;;;;;;11.57;4.07;;;22.00;99.90;;;;;;5075101;28;20569;-41
2022/07/26 09:02:03;;;;;;;10.03;3.60;;;22.20;99.90;;;;;;5075155;28;20259;-42
2022/07/26 09:04:32;;;;;;;10.03;3.80;;;22.40;99.90;;;;;;5075309;28;20168;-41
2022/07/26 09:07:05;;;;;;;10.87;4.10;;;22.60;99.90;;;;;;5076147;28;20184;-46
2022/07/26 09:09:39;;;;;;;10.33;3.27;;;22.90;99.90;;;;;;5074806;28;20195;-47
2022/07/26 09:12:19;;;;;;;7.53;2.77;;;23.00;99.90;;;;;;5075306;28;20523;-46
2022/07/26 09:14:46;;;;;;;4.60;2.60;;;22.90;99.90;;;;;;5075350;28;20217;-47
2022/07/26 09:17:13;;;;;;;6.93;3.87;;;23.00;99.90;;;;;;5075072;28;20187;-47
2022/07/26 09:19:38;;;;;;;6.70;2.97;;;22.90;99.90;;;;;;5074617;28;20678;-46
2022/07/26 09:22:22;;;;;;;10.30;2.90;;;22.80;99.90;;;;;;5074947;28;20190;-47
2022/07/26 09:24:48;;;;;;;7.80;2.77;;;22.70;99.90;;;;;;5074816;28;20217;-48
2022/07/26 09:27:16;;;;;;;4.47;2.60;;;22.80;99.90;;;;;;5073244;28;20610;-46
2022/07/26 09:29:42;;;;;;;7.97;3.30;;;22.80;99.90;;;;;;5074318;28;20297;-48
2022/07/26 09:32:10;;;;;;;8.23;2.37;;;23.00;99.90;;;;;;5074367;28;20176;-47
2022/07/26 09:34:37;;;;;;;7.77;2.40;;;22.90;99.90;;;;;;5074439;28;20179;-46
2022/07/26 09:37:03;;;;;;;5.57;2.50;;;22.80;99.90;;;;;;5074211;28;20716;-47
2022/07/26 09:39:29;;;;;;;7.53;2.77;;;22.90;99.90;;;;;;5072920;28;20214;-48
2022/07/26 09:41:55;;;;;;;6.60;2.70;;;23.10;99.90;;;;;;5074193;28;20182;-47
2022/07/26 09:44:25;;;;;;;7.23;3.00;;;23.30;99.90;;;;;;5072950;28;20180;-47
2022/07/26 09:46:52;;;;;;;7.43;2.60;;;23.20;99.90;;;;;;5074143;28;20183;-47
2022/07/26 09:49:20;;;;;;;6.20;2.90;;;23.30;99.90;;;;;;5073917;28;20204;-47
2022/07/26 09:51:48;;;;;;;7.13;3.20;;;23.50;99.90;;;;;;5074083;28;20254;-47
2022/07/26 09:54:32;;;;;;;3.90;2.47;;;23.70;99.90;;;;;;5074301;28;20575;-48
2022/07/26 09:56:58;;;;;;;7.83;2.70;;;23.70;99.90;;;;;;5074227;28;20156;-48
2022/07/26 09:59:25;;;;;;;13.97;3.00;;;23.70;99.90;;;;;;5074145;28;20186;-47
2022/07/26 10:01:53;;;;;;;8.97;3.17;;;23.60;99.90;;;;;;5073858;28;20183;-46
2022/07/26 10:04:19;;;;;;;7.17;2.80;;;23.60;99.90;;;;;;5073841;28;20180;-46
2022/07/26 10:06:46;;;;;;;6.07;2.83;;;23.70;99.90;;;;;;5072527;28;20183;-47
2022/07/26 10:09:13;;;;;;;7.90;3.07;;;23.80;99.90;;;;;;5073538;28;20298;-47
2022/07/26 10:11:51;;;;;;;4.90;2.90;;;23.90;99.90;;;;;;5074048;28;20172;-47
2022/07/26 10:14:31;;;;;;;8.43;3.43;;;23.90;99.90;;;;;;5074054;28;20272;-47
2022/07/26 10:16:57;;;;;;;9.03;3.10;;;23.80;99.90;;;;;;5073888;28;20172;-47
2022/07/26 10:19:40;;;;;;;5.73;2.87;;;23.90;99.90;;;;;;5072167;28;20218;-47
2022/07/26 10:22:26;;;;;;;3.83;2.63;;;24.00;99.90;;;;;;5073505;28;20193;-47
2022/07/26 10:24:56;;;;;;;6.33;2.73;;;23.90;99.90;;;;;;5073523;28;20175;-48
2022/07/26 10:27:41;;;;;;;8.93;3.37;;;23.70;99.90;;;;;;5073760;28;20205;-46
2022/07/26 10:30:19;;;;;;;9.10;2.73;;;23.30;99.90;;;;;;5073524;28;20210;-47
2022/07/26 10:32:50;;;;;;;6.83;3.17;;;23.10;99.90;;;;;;5073463;28;20171;-46
2022/07/26 10:35:35;;;;;;;7.13;3.50;;;22.90;99.90;;;;;;5073680;28;20233;-46
2022/07/26 10:38:00;;;;;;;11.03;3.40;;;22.80;99.90;;;;;;5073344;28;20207;-47
2022/07/26 10:40:29;;;;;;;5.13;3.10;;;22.60;99.90;;;;;;5073278;28;20284;-47
2022/07/26 10:43:15;;;;;;;9.70;3.67;;;22.30;99.90;;;;;;5073271;28;20176;-47
2022/07/26 10:45:42;;;;;;;6.57;3.40;;;21.90;99.90;;;;;;5072719;28;20621;-47
2022/07/26 10:48:11;;;;;;;5.03;3.37;;;21.70;99.90;;;;;;5073553;28;20179;-47
2022/07/26 10:50:37;;;;;;;6.67;3.60;;;21.60;99.90;;;;;;5073065;28;20290;-47
2022/07/26 10:53:03;;;;;;;9.60;3.40;;;21.40;99.90;;;;;;5073136;28;20218;-48
2022/07/26 10:55:30;;;;;;;5.30;3.37;;;21.30;99.90;;;;;;5073131;28;20203;-47
2022/07/26 10:57:55;;;;;;;7.80;3.63;;;21.00;99.90;;;;;;5055232;28;20183;-48
2022/07/26 11:00:24;;;;;;;5.27;3.40;;;20.90;99.90;;;;;;5071761;28;20728;-47
2022/07/26 11:02:58;;;;;;;5.13;3.70;;;20.90;99.90;;;;;;5073645;28;20172;-49
2022/07/26 11:05:32;;;;;;;7.70;4.07;;;20.90;99.90;;;;;;5073031;28;20639;-47
2022/07/26 11:08:05;;;;;;;5.60;3.83;;;21.00;99.90;;;;;;5073384;28;20217;-49
2022/07/26 11:10:32;;;;;;;7.43;3.90;;;21.20;99.90;;;;;;5072996;28;20233;-47
2022/07/26 11:13:03;;;;;;;6.53;3.80;;;21.30;99.90;;;;;;5072981;28;20182;-47
2022/07/26 11:15:29;;;;;;;6.00;3.83;;;21.50;99.90;;;;;;5073219;28;20209;-48
2022/07/26 11:18:16;;;;;;;7.87;4.37;;;21.70;99.90;;;;;;5072861;28;20547;-47
2022/07/26 11:20:44;;;;;;;9.50;4.47;;;21.80;99.90;;;;;;5072871;28;20211;-48
2022/07/26 11:23:27;;;;;;;8.50;3.70;;;21.90;99.90;;;;;;5072867;28;20207;-47
2022/07/26 11:26:18;;;;;;;8.20;4.10;;;22.00;99.90;;;;;;5073124;28;20174;-47
2022/07/26 11:28:57;;;;;;;7.33;4.07;;;22.10;99.90;;;;;;5072847;28;20183;-47
2022/07/26 11:31:27;;;;;;;9.40;4.83;;;22.10;99.90;;;;;;5071830;28;20202;-43
2022/07/26 11:33:54;;;;;;;8.10;4.23;;;22.10;99.90;;;;;;5072782;28;20190;-42
2022/07/26 11:36:35;;;;;;;5.17;4.27;;;22.10;99.90;;;;;;5073130;28;20519;-41
2022/07/26 11:39:07;;;;;;;8.40;4.67;;;22.20;99.90;;;;;;5072750;28;20186;-41
2022/07/26 11:41:33;;;;;;;6.10;3.97;;;22.30;99.90;;;;;;5072664;28;20196;-42
2022/07/26 11:43:59;;;;;;;4.80;3.77;;;22.30;99.90;;;;;;5072724;28;20190;-41
2022/07/26 11:46:38;;;;;;;4.70;3.60;;;22.40;99.90;;;;;;5073012;28;20184;-39
2022/07/26 11:49:14;;;;;;;5.27;3.57;;;22.70;99.90;;;;;;5073004;28;20201;-42
2022/07/26 11:51:46;;;;;;;4.83;2.87;;;22.90;99.90;;;;;;5072754;28;20171;-44
2022/07/26 11:54:12;;;;;;;4.87;2.93;;;23.20;99.90;;;;;;5072960;28;20190;-41
2022/07/26 11:56:37;;;;;;;8.03;3.27;;;23.50;99.90;;;;;;5072608;28;20247;-41
2022/07/26 11:59:03;;;;;;;5.40;3.10;;;23.80;99.90;;;;;;5075836;28;20635;-43
2022/07/26 12:01:29;;;;;;;6.43;3.37;;;23.90;99.90;;;;;;5074731;28;20200;-42
2022/07/26 12:03:55;;;;;;;4.53;2.53;;;24.00;99.90;;;;;;5076060;28;20171;-41
2022/07/26 12:06:23;;;;;;;6.03;2.53;;;24.10;99.90;;;;;;5076261;28;20179;-42
2022/07/26 12:08:57;;;;;;;4.07;2.80;;;24.20;99.90;;;;;;5076170;28;20627;-42
2022/07/26 12:11:35;;;;;;;2.07;1.67;;;24.40;99.90;;;;;;5076200;28;20200;-43
2022/07/26 12:14:01;;;;;;;3.70;1.60;;;24.30;99.90;;;;;;5076531;28;20160;-41
2022/07/26 12:16:40;;;;;;;3.23;1.23;;;23.90;99.90;;;;;;5075832;28;20221;-41
2022/07/26 12:19:09;;;;;;;2.13;1.30;;;23.70;99.90;;;;;;5075812;28;20652;-41
2022/07/26 12:21:43;;;;;;;4.37;1.40;;;23.40;99.90;;;;;;5075909;28;20200;-43
2022/07/26 12:24:11;;;;;;;2.80;1.10;;;23.10;99.90;;;;;;5075738;28;20171;-41
2022/07/26 12:26:37;;;;;;;2.70;1.23;;;22.90;99.90;;;;;;5075897;28;20241;-42
2022/07/26 12:32:21;;;;;;;4.30;1.30;;;22.70;99.90;;;;;;5076039;28;20538;-39
2022/07/26 12:34:56;;;;;;;2.63;1.53;;;22.80;99.90;;;;;;5052829;28;20279;-43
2022/07/26 12:37:22;;;;;;;4.93;1.60;;;22.90;99.90;;;;;;5075462;28;20179;-42
2022/07/26 12:40:11;;;;;;;7.27;2.23;;;23.10;99.90;;;;;;5075777;28;20195;-41
2022/07/26 12:42:42;;;;;;;4.67;1.63;;;23.30;99.90;;;;;;5075657;28;20175;-43
2022/07/26 12:45:10;;;;;;;2.13;1.77;;;23.30;99.90;;;;;;5075796;28;20188;-41
2022/07/26 12:47:39;;;;;;;4.40;1.50;;;23.40;99.90;;;;;;5073984;28;20647;-41
2022/07/26 12:50:07;;;;;;;2.00;1.60;;;23.40;99.90;;;;;;5075267;28;20698;-42
2022/07/26 12:52:33;;;;;;;2.77;1.90;;;23.50;99.90;;;;;;5075354;28;20228;-40